sensor_id;sensor_type;location;lat;lon;timestamp;P1;durP1;ratioP1;P2;durP2;ratioP2
14030;SDS011;7090;49.436;8.490;2022-10-22T00:00:28;3.72;;;3.53;;
14030;SDS011;7090;49.436;8.490;2022-10-22T00:02:54;3.47;;;3.25;;
14030;SDS011;7090;49.436;8.490;2022-10-22T00:05:19;3.83;;;3.63;;
14030;SDS011;7090;49.436;8.490;2022-10-22T00:07:45;3.33;;;3.20;;
14030;SDS011;7090;49.436;8.490;2022-10-22T00:10:11;4.75;;;4.38;;
14030;SDS011;7090;49.436;8.490;2022-10-22T00:12:36;3.58;;;3.47;;
14030;SDS011;7090;49.436;8.490;2022-10-22T00:15:03;4.40;;;4.10;;
14030;SDS011;7090;49.436;8.490;2022-10-22T00:17:29;3.60;;;3.40;;
14030;SDS011;7090;49.436;8.490;2022-10-22T00:19:54;3.80;;;3.60;;
14030;SDS011;7090;49.436;8.490;2022-10-22T00:22:20;3.65;;;3.40;;
14030;SDS011;7090;49.436;8.490;2022-10-22T00:24:46;3.58;;;3.38;;
14030;SDS011;7090;49.436;8.490;2022-10-22T00:27:11;3.70;;;3.50;;
14030;SDS011;7090;49.436;8.490;2022-10-22T00:29:38;3.53;;;3.33;;
14030;SDS011;7090;49.436;8.490;2022-10-22T00:32:04;3.50;;;3.35;;
14030;SDS011;7090;49.436;8.490;2022-10-22T00:34:31;5.35;;;3.60;;
14030;SDS011;7090;49.436;8.490;2022-10-22T00:36:57;3.63;;;3.42;;
14030;SDS011;7090;49.436;8.490;2022-10-22T00:39:23;3.90;;;3.40;;
14030;SDS011;7090;49.436;8.490;2022-10-22T00:41:51;3.47;;;3.28;;
14030;SDS011;7090;49.436;8.490;2022-10-22T00:47:21;5.40;;;3.15;;
14030;SDS011;7090;49.436;8.490;2022-10-22T00:49:47;2.95;;;2.85;;
14030;SDS011;7090;49.436;8.490;2022-10-22T00:52:15;3.03;;;2.92;;
14030;SDS011;7090;49.436;8.490;2022-10-22T00:54:41;2.90;;;2.80;;
14030;SDS011;7090;49.436;8.490;2022-10-22T00:57:07;3.10;;;3.00;;
14030;SDS011;7090;49.436;8.490;2022-10-22T00:59:33;3.83;;;2.80;;
14030;SDS011;7090;49.436;8.490;2022-10-22T01:01:59;4.63;;;3.20;;
14030;SDS011;7090;49.436;8.490;2022-10-22T01:04:25;6.13;;;2.92;;
14030;SDS011;7090;49.436;8.490;2022-10-22T01:06:50;3.17;;;2.78;;
14030;SDS011;7090;49.436;8.490;2022-10-22T01:09:28;2.75;;;2.65;;
14030;SDS011;7090;49.436;8.490;2022-10-22T01:17:05;2.85;;;2.75;;
14030;SDS011;7090;49.436;8.490;2022-10-22T01:27:44;2.80;;;2.70;;
14030;SDS011;7090;49.436;8.490;2022-10-22T01:30:16;2.80;;;2.70;;
14030;SDS011;7090;49.436;8.490;2022-10-22T01:32:53;3.72;;;2.90;;
14030;SDS011;7090;49.436;8.490;2022-10-22T01:35:30;3.00;;;2.80;;
14030;SDS011;7090;49.436;8.490;2022-10-22T01:37:59;2.88;;;2.70;;
14030;SDS011;7090;49.436;8.490;2022-10-22T01:40:28;2.28;;;2.17;;
14030;SDS011;7090;49.436;8.490;2022-10-22T01:42:58;2.65;;;2.45;;
14030;SDS011;7090;49.436;8.490;2022-10-22T01:45:24;2.45;;;2.25;;
14030;SDS011;7090;49.436;8.490;2022-10-22T01:48:08;2.38;;;2.28;;
14030;SDS011;7090;49.436;8.490;2022-10-22T01:50:44;2.35;;;2.25;;
14030;SDS011;7090;49.436;8.490;2022-10-22T01:53:36;3.00;;;2.55;;
14030;SDS011;7090;49.436;8.490;2022-10-22T01:56:29;2.47;;;2.30;;
14030;SDS011;7090;49.436;8.490;2022-10-22T02:04:19;2.50;;;2.40;;
14030;SDS011;7090;49.436;8.490;2022-10-22T02:06:54;2.70;;;2.53;;
14030;SDS011;7090;49.436;8.490;2022-10-22T02:09:23;4.00;;;2.25;;
14030;SDS011;7090;49.436;8.490;2022-10-22T02:11:52;2.30;;;2.20;;
14030;SDS011;7090;49.436;8.490;2022-10-22T02:14:18;2.75;;;2.10;;
14030;SDS011;7090;49.436;8.490;2022-10-22T02:16:46;7.82;;;2.33;;
14030;SDS011;7090;49.436;8.490;2022-10-22T02:22:03;2.33;;;2.22;;
14030;SDS011;7090;49.436;8.490;2022-10-22T02:24:28;2.00;;;2.00;;
14030;SDS011;7090;49.436;8.490;2022-10-22T02:27:08;2.17;;;2.10;;
14030;SDS011;7090;49.436;8.490;2022-10-22T02:32:17;2.42;;;2.33;;
14030;SDS011;7090;49.436;8.490;2022-10-22T02:34:45;2.00;;;2.00;;
14030;SDS011;7090;49.436;8.490;2022-10-22T02:37:12;5.95;;;2.75;;
14030;SDS011;7090;49.436;8.490;2022-10-22T02:39:38;2.25;;;2.22;;
14030;SDS011;7090;49.436;8.490;2022-10-22T02:42:05;2.80;;;2.70;;
14030;SDS011;7090;49.436;8.490;2022-10-22T02:44:32;2.30;;;2.20;;
14030;SDS011;7090;49.436;8.490;2022-10-22T02:46:57;2.30;;;2.20;;
14030;SDS011;7090;49.436;8.490;2022-10-22T02:49:23;2.30;;;2.20;;
14030;SDS011;7090;49.436;8.490;2022-10-22T02:51:49;2.78;;;2.30;;
14030;SDS011;7090;49.436;8.490;2022-10-22T02:54:15;2.30;;;2.20;;
14030;SDS011;7090;49.436;8.490;2022-10-22T02:56:40;2.50;;;2.30;;
14030;SDS011;7090;49.436;8.490;2022-10-22T02:59:06;2.65;;;2.55;;
14030;SDS011;7090;49.436;8.490;2022-10-22T03:01:31;2.30;;;2.20;;
14030;SDS011;7090;49.436;8.490;2022-10-22T03:03:57;2.70;;;2.60;;
14030;SDS011;7090;49.436;8.490;2022-10-22T03:06:23;2.40;;;2.30;;
14030;SDS011;7090;49.436;8.490;2022-10-22T03:08:48;2.20;;;2.20;;
14030;SDS011;7090;49.436;8.490;2022-10-22T03:11:14;11.07;;;2.60;;
14030;SDS011;7090;49.436;8.490;2022-10-22T03:13:39;2.60;;;2.50;;
14030;SDS011;7090;49.436;8.490;2022-10-22T03:16:05;2.30;;;2.20;;
14030;SDS011;7090;49.436;8.490;2022-10-22T03:18:31;3.22;;;3.00;;
14030;SDS011;7090;49.436;8.490;2022-10-22T03:21:10;2.08;;;2.08;;
14030;SDS011;7090;49.436;8.490;2022-10-22T03:23:47;2.10;;;2.10;;
14030;SDS011;7090;49.436;8.490;2022-10-22T03:26:13;2.45;;;2.35;;
14030;SDS011;7090;49.436;8.490;2022-10-22T03:28:39;1.98;;;1.98;;
14030;SDS011;7090;49.436;8.490;2022-10-22T03:31:06;2.00;;;2.00;;
14030;SDS011;7090;49.436;8.490;2022-10-22T03:33:31;2.53;;;2.42;;
14030;SDS011;7090;49.436;8.490;2022-10-22T03:35:57;2.60;;;2.50;;
14030;SDS011;7090;49.436;8.490;2022-10-22T03:38:24;2.58;;;2.42;;
14030;SDS011;7090;49.436;8.490;2022-10-22T03:40:50;1.90;;;1.80;;
14030;SDS011;7090;49.436;8.490;2022-10-22T03:43:16;1.80;;;1.75;;
14030;SDS011;7090;49.436;8.490;2022-10-22T03:45:41;2.42;;;2.28;;
14030;SDS011;7090;49.436;8.490;2022-10-22T03:48:07;2.65;;;2.53;;
14030;SDS011;7090;49.436;8.490;2022-10-22T03:50:32;1.80;;;1.80;;
14030;SDS011;7090;49.436;8.490;2022-10-22T03:52:59;2.10;;;2.10;;
14030;SDS011;7090;49.436;8.490;2022-10-22T03:55:25;1.90;;;1.90;;
14030;SDS011;7090;49.436;8.490;2022-10-22T03:57:50;2.35;;;2.25;;
14030;SDS011;7090;49.436;8.490;2022-10-22T04:00:16;2.70;;;2.60;;
14030;SDS011;7090;49.436;8.490;2022-10-22T04:02:42;2.47;;;2.38;;
14030;SDS011;7090;49.436;8.490;2022-10-22T04:05:07;2.78;;;2.67;;
14030;SDS011;7090;49.436;8.490;2022-10-22T04:07:33;2.60;;;2.50;;
14030;SDS011;7090;49.436;8.490;2022-10-22T04:09:59;2.80;;;2.70;;
14030;SDS011;7090;49.436;8.490;2022-10-22T04:12:24;2.30;;;2.30;;
14030;SDS011;7090;49.436;8.490;2022-10-22T04:14:50;2.33;;;2.22;;
14030;SDS011;7090;49.436;8.490;2022-10-22T04:17:15;2.53;;;2.42;;
14030;SDS011;7090;49.436;8.490;2022-10-22T04:19:41;2.22;;;2.22;;
14030;SDS011;7090;49.436;8.490;2022-10-22T04:22:07;2.17;;;2.17;;
14030;SDS011;7090;49.436;8.490;2022-10-22T04:24:32;2.20;;;2.20;;
14030;SDS011;7090;49.436;8.490;2022-10-22T04:26:58;2.60;;;2.50;;
14030;SDS011;7090;49.436;8.490;2022-10-22T04:29:25;2.60;;;2.50;;
14030;SDS011;7090;49.436;8.490;2022-10-22T04:31:50;2.60;;;2.50;;
14030;SDS011;7090;49.436;8.490;2022-10-22T04:34:16;4.20;;;2.30;;
14030;SDS011;7090;49.436;8.490;2022-10-22T04:36:42;2.05;;;2.00;;
14030;SDS011;7090;49.436;8.490;2022-10-22T04:39:08;2.45;;;2.25;;
14030;SDS011;7090;49.436;8.490;2022-10-22T04:41:36;2.53;;;2.10;;
14030;SDS011;7090;49.436;8.490;2022-10-22T04:44:02;2.33;;;2.15;;
14030;SDS011;7090;49.436;8.490;2022-10-22T04:46:29;2.30;;;2.10;;
14030;SDS011;7090;49.436;8.490;2022-10-22T04:48:57;2.38;;;2.28;;
14030;SDS011;7090;49.436;8.490;2022-10-22T04:51:23;1.80;;;1.80;;
14030;SDS011;7090;49.436;8.490;2022-10-22T04:53:49;2.22;;;2.13;;
14030;SDS011;7090;49.436;8.490;2022-10-22T04:56:16;1.80;;;1.80;;
14030;SDS011;7090;49.436;8.490;2022-10-22T04:58:46;2.08;;;1.98;;
14030;SDS011;7090;49.436;8.490;2022-10-22T05:01:17;1.90;;;1.83;;
14030;SDS011;7090;49.436;8.490;2022-10-22T05:03:44;2.25;;;1.70;;
14030;SDS011;7090;49.436;8.490;2022-10-22T05:06:11;1.40;;;1.40;;
14030;SDS011;7090;49.436;8.490;2022-10-22T05:08:37;1.75;;;1.65;;
14030;SDS011;7090;49.436;8.490;2022-10-22T05:11:13;2.15;;;2.00;;
14030;SDS011;7090;49.436;8.490;2022-10-22T05:13:44;1.63;;;1.63;;
14030;SDS011;7090;49.436;8.490;2022-10-22T05:16:10;1.40;;;1.40;;
14030;SDS011;7090;49.436;8.490;2022-10-22T05:18:37;1.30;;;1.30;;
14030;SDS011;7090;49.436;8.490;2022-10-22T05:21:04;1.60;;;1.60;;
14030;SDS011;7090;49.436;8.490;2022-10-22T05:23:33;1.50;;;1.50;;
14030;SDS011;7090;49.436;8.490;2022-10-22T05:26:02;1.60;;;1.60;;
14030;SDS011;7090;49.436;8.490;2022-10-22T05:28:30;1.70;;;1.70;;
14030;SDS011;7090;49.436;8.490;2022-10-22T05:30:56;1.70;;;1.70;;
14030;SDS011;7090;49.436;8.490;2022-10-22T05:33:23;1.90;;;1.88;;
14030;SDS011;7090;49.436;8.490;2022-10-22T05:35:50;1.70;;;1.70;;
14030;SDS011;7090;49.436;8.490;2022-10-22T05:38:16;1.73;;;1.73;;
14030;SDS011;7090;49.436;8.490;2022-10-22T05:40:42;1.80;;;1.80;;
14030;SDS011;7090;49.436;8.490;2022-10-22T05:43:08;2.28;;;2.17;;
14030;SDS011;7090;49.436;8.490;2022-10-22T05:45:37;1.80;;;1.80;;
14030;SDS011;7090;49.436;8.490;2022-10-22T05:48:04;1.80;;;1.80;;
14030;SDS011;7090;49.436;8.490;2022-10-22T05:50:31;6.45;;;2.47;;
14030;SDS011;7090;49.436;8.490;2022-10-22T05:53:00;1.50;;;1.50;;
14030;SDS011;7090;49.436;8.490;2022-10-22T05:55:25;1.38;;;1.38;;
14030;SDS011;7090;49.436;8.490;2022-10-22T05:57:51;1.45;;;1.45;;
14030;SDS011;7090;49.436;8.490;2022-10-22T06:00:16;1.50;;;1.50;;
14030;SDS011;7090;49.436;8.490;2022-10-22T06:02:42;1.98;;;1.88;;
14030;SDS011;7090;49.436;8.490;2022-10-22T06:05:07;1.38;;;1.38;;
14030;SDS011;7090;49.436;8.490;2022-10-22T06:07:34;1.35;;;1.35;;
14030;SDS011;7090;49.436;8.490;2022-10-22T06:10:00;1.50;;;1.50;;
14030;SDS011;7090;49.436;8.490;2022-10-22T06:12:26;1.30;;;1.30;;
14030;SDS011;7090;49.436;8.490;2022-10-22T06:14:52;1.40;;;1.40;;
14030;SDS011;7090;49.436;8.490;2022-10-22T06:17:17;1.73;;;1.73;;
14030;SDS011;7090;49.436;8.490;2022-10-22T06:19:43;2.15;;;2.05;;
14030;SDS011;7090;49.436;8.490;2022-10-22T06:22:09;1.65;;;1.65;;
14030;SDS011;7090;49.436;8.490;2022-10-22T06:24:35;1.70;;;1.70;;
14030;SDS011;7090;49.436;8.490;2022-10-22T06:27:00;1.70;;;1.70;;
14030;SDS011;7090;49.436;8.490;2022-10-22T06:29:26;1.67;;;1.67;;
14030;SDS011;7090;49.436;8.490;2022-10-22T06:31:52;8.20;;;2.33;;
14030;SDS011;7090;49.436;8.490;2022-10-22T06:34:17;1.80;;;1.80;;
14030;SDS011;7090;49.436;8.490;2022-10-22T06:36:44;2.10;;;2.00;;
14030;SDS011;7090;49.436;8.490;2022-10-22T06:39:11;2.10;;;2.10;;
14030;SDS011;7090;49.436;8.490;2022-10-22T06:41:39;1.80;;;1.80;;
14030;SDS011;7090;49.436;8.490;2022-10-22T06:44:04;2.17;;;2.17;;
14030;SDS011;7090;49.436;8.490;2022-10-22T06:46:30;2.20;;;2.20;;
14030;SDS011;7090;49.436;8.490;2022-10-22T06:48:57;2.10;;;2.10;;
14030;SDS011;7090;49.436;8.490;2022-10-22T06:51:26;2.13;;;2.13;;
14030;SDS011;7090;49.436;8.490;2022-10-22T06:53:53;1.90;;;1.90;;
14030;SDS011;7090;49.436;8.490;2022-10-22T06:56:20;1.80;;;1.80;;
14030;SDS011;7090;49.436;8.490;2022-10-22T06:58:47;1.80;;;1.80;;
14030;SDS011;7090;49.436;8.490;2022-10-22T07:01:18;1.90;;;1.90;;
14030;SDS011;7090;49.436;8.490;2022-10-22T07:03:45;1.70;;;1.70;;
14030;SDS011;7090;49.436;8.490;2022-10-22T07:06:12;2.13;;;2.03;;
14030;SDS011;7090;49.436;8.490;2022-10-22T07:08:38;1.42;;;1.42;;
14030;SDS011;7090;49.436;8.490;2022-10-22T07:11:06;1.88;;;1.85;;
14030;SDS011;7090;49.436;8.490;2022-10-22T07:13:33;1.85;;;1.75;;
14030;SDS011;7090;49.436;8.490;2022-10-22T07:15:59;1.70;;;1.70;;
14030;SDS011;7090;49.436;8.490;2022-10-22T07:18:24;2.63;;;2.53;;
14030;SDS011;7090;49.436;8.490;2022-10-22T07:20:50;2.10;;;2.10;;
14030;SDS011;7090;49.436;8.490;2022-10-22T07:23:16;2.13;;;2.13;;
14030;SDS011;7090;49.436;8.490;2022-10-22T07:25:41;2.45;;;2.35;;
14030;SDS011;7090;49.436;8.490;2022-10-22T07:28:07;5.68;;;5.28;;
14030;SDS011;7090;49.436;8.490;2022-10-22T07:30:33;2.60;;;2.50;;
14030;SDS011;7090;49.436;8.490;2022-10-22T07:32:59;3.88;;;3.63;;
14030;SDS011;7090;49.436;8.490;2022-10-22T07:35:25;3.70;;;3.35;;
14030;SDS011;7090;49.436;8.490;2022-10-22T07:37:51;2.45;;;2.35;;
14030;SDS011;7090;49.436;8.490;2022-10-22T07:40:16;2.95;;;2.85;;
14030;SDS011;7090;49.436;8.490;2022-10-22T07:42:42;3.50;;;3.30;;
14030;SDS011;7090;49.436;8.490;2022-10-22T07:45:07;3.97;;;3.75;;
14030;SDS011;7090;49.436;8.490;2022-10-22T07:47:33;3.28;;;3.08;;
14030;SDS011;7090;49.436;8.490;2022-10-22T07:49:59;3.30;;;3.10;;
14030;SDS011;7090;49.436;8.490;2022-10-22T07:52:25;2.83;;;2.72;;
14030;SDS011;7090;49.436;8.490;2022-10-22T07:54:51;2.83;;;2.72;;
14030;SDS011;7090;49.436;8.490;2022-10-22T07:57:17;4.90;;;3.13;;
14030;SDS011;7090;49.436;8.490;2022-10-22T07:59:42;3.13;;;3.03;;
14030;SDS011;7090;49.436;8.490;2022-10-22T08:02:08;3.33;;;3.22;;
14030;SDS011;7090;49.436;8.490;2022-10-22T08:04:35;3.20;;;3.10;;
14030;SDS011;7090;49.436;8.490;2022-10-22T08:07:02;3.17;;;3.08;;
14030;SDS011;7090;49.436;8.490;2022-10-22T08:09:27;3.65;;;3.45;;
14030;SDS011;7090;49.436;8.490;2022-10-22T08:11:53;3.88;;;3.67;;
14030;SDS011;7090;49.436;8.490;2022-10-22T08:14:19;4.07;;;3.88;;
14030;SDS011;7090;49.436;8.490;2022-10-22T08:16:44;4.20;;;3.80;;
14030;SDS011;7090;49.436;8.490;2022-10-22T08:19:10;4.65;;;4.43;;
14030;SDS011;7090;49.436;8.490;2022-10-22T08:21:37;3.80;;;3.70;;
14030;SDS011;7090;49.436;8.490;2022-10-22T08:24:03;4.15;;;3.95;;
14030;SDS011;7090;49.436;8.490;2022-10-22T08:26:30;3.65;;;3.55;;
14030;SDS011;7090;49.436;8.490;2022-10-22T08:28:55;3.80;;;3.70;;
14030;SDS011;7090;49.436;8.490;2022-10-22T08:31:21;3.70;;;3.60;;
14030;SDS011;7090;49.436;8.490;2022-10-22T08:33:46;4.00;;;3.75;;
14030;SDS011;7090;49.436;8.490;2022-10-22T08:36:12;4.38;;;4.15;;
14030;SDS011;7090;49.436;8.490;2022-10-22T08:38:38;3.67;;;3.58;;
14030;SDS011;7090;49.436;8.490;2022-10-22T08:41:08;4.10;;;4.00;;
14030;SDS011;7090;49.436;8.490;2022-10-22T08:49:44;3.50;;;3.40;;
14030;SDS011;7090;49.436;8.490;2022-10-22T08:52:11;3.85;;;3.65;;
14030;SDS011;7090;49.436;8.490;2022-10-22T08:59:39;3.72;;;3.63;;
14030;SDS011;7090;49.436;8.490;2022-10-22T09:02:19;3.90;;;3.30;;
14030;SDS011;7090;49.436;8.490;2022-10-22T09:07:45;3.53;;;3.43;;
14030;SDS011;7090;49.436;8.490;2022-10-22T09:10:14;3.25;;;3.15;;
14030;SDS011;7090;49.436;8.490;2022-10-22T09:12:46;2.80;;;2.70;;
14030;SDS011;7090;49.436;8.490;2022-10-22T09:15:16;3.22;;;3.13;;
14030;SDS011;7090;49.436;8.490;2022-10-22T09:17:54;3.05;;;2.95;;
14030;SDS011;7090;49.436;8.490;2022-10-22T09:20:28;3.20;;;2.92;;
14030;SDS011;7090;49.436;8.490;2022-10-22T09:25:53;3.20;;;2.83;;
14030;SDS011;7090;49.436;8.490;2022-10-22T09:28:21;2.42;;;2.33;;
14030;SDS011;7090;49.436;8.490;2022-10-22T09:30:46;2.85;;;2.47;;
14030;SDS011;7090;49.436;8.490;2022-10-22T09:33:16;2.70;;;2.55;;
14030;SDS011;7090;49.436;8.490;2022-10-22T09:35:50;2.60;;;2.50;;
14030;SDS011;7090;49.436;8.490;2022-10-22T09:38:26;2.58;;;2.47;;
14030;SDS011;7090;49.436;8.490;2022-10-22T09:40:53;2.67;;;2.58;;
14030;SDS011;7090;49.436;8.490;2022-10-22T09:43:20;9.52;;;2.83;;
14030;SDS011;7090;49.436;8.490;2022-10-22T09:45:46;2.50;;;2.40;;
14030;SDS011;7090;49.436;8.490;2022-10-22T09:48:20;2.28;;;2.28;;
14030;SDS011;7090;49.436;8.490;2022-10-22T09:51:02;2.63;;;2.45;;
14030;SDS011;7090;49.436;8.490;2022-10-22T09:53:55;2.22;;;2.15;;
14030;SDS011;7090;49.436;8.490;2022-10-22T09:56:27;2.40;;;2.30;;
14030;SDS011;7090;49.436;8.490;2022-10-22T09:59:00;2.35;;;2.25;;
14030;SDS011;7090;49.436;8.490;2022-10-22T10:01:31;2.25;;;2.25;;
14030;SDS011;7090;49.436;8.490;2022-10-22T10:04:02;2.50;;;2.40;;
14030;SDS011;7090;49.436;8.490;2022-10-22T10:06:31;2.63;;;2.53;;
14030;SDS011;7090;49.436;8.490;2022-10-22T10:08:58;2.65;;;2.55;;
14030;SDS011;7090;49.436;8.490;2022-10-22T10:11:35;2.65;;;2.53;;
14030;SDS011;7090;49.436;8.490;2022-10-22T10:16:57;2.60;;;2.50;;
14030;SDS011;7090;49.436;8.490;2022-10-22T10:25:23;3.20;;;2.92;;
14030;SDS011;7090;49.436;8.490;2022-10-22T10:30:53;2.70;;;2.60;;
14030;SDS011;7090;49.436;8.490;2022-10-22T10:39:08;3.42;;;3.20;;
14030;SDS011;7090;49.436;8.490;2022-10-22T10:41:50;3.00;;;2.90;;
14030;SDS011;7090;49.436;8.490;2022-10-22T10:50:03;3.35;;;3.00;;
14030;SDS011;7090;49.436;8.490;2022-10-22T10:55:29;2.90;;;2.80;;
14030;SDS011;7090;49.436;8.490;2022-10-22T11:06:33;2.90;;;2.80;;
14030;SDS011;7090;49.436;8.490;2022-10-22T11:09:04;3.22;;;3.13;;
14030;SDS011;7090;49.436;8.490;2022-10-22T11:11:39;3.00;;;2.90;;
14030;SDS011;7090;49.436;8.490;2022-10-22T11:17:46;3.08;;;2.97;;
14030;SDS011;7090;49.436;8.490;2022-10-22T11:20:15;2.60;;;2.50;;
14030;SDS011;7090;49.436;8.490;2022-10-22T11:23:05;3.15;;;2.95;;
14030;SDS011;7090;49.436;8.490;2022-10-22T11:25:41;2.83;;;2.72;;
14030;SDS011;7090;49.436;8.490;2022-10-22T11:28:13;2.90;;;2.80;;
14030;SDS011;7090;49.436;8.490;2022-10-22T11:30:55;2.58;;;2.47;;
14030;SDS011;7090;49.436;8.490;2022-10-22T11:33:38;3.03;;;2.80;;
14030;SDS011;7090;49.436;8.490;2022-10-22T11:36:12;2.80;;;2.70;;
14030;SDS011;7090;49.436;8.490;2022-10-22T11:38:38;3.00;;;2.90;;
14030;SDS011;7090;49.436;8.490;2022-10-22T11:41:07;2.88;;;2.78;;
14030;SDS011;7090;49.436;8.490;2022-10-22T11:46:46;2.92;;;2.83;;
14030;SDS011;7090;49.436;8.490;2022-10-22T11:49:18;2.65;;;2.55;;
14030;SDS011;7090;49.436;8.490;2022-10-22T11:51:51;2.53;;;2.42;;
14030;SDS011;7090;49.436;8.490;2022-10-22T11:54:45;2.70;;;2.60;;
14030;SDS011;7090;49.436;8.490;2022-10-22T11:59:43;3.17;;;2.97;;
14030;SDS011;7090;49.436;8.490;2022-10-22T12:04:51;3.08;;;2.97;;
14030;SDS011;7090;49.436;8.490;2022-10-22T12:07:33;2.60;;;2.50;;
14030;SDS011;7090;49.436;8.490;2022-10-22T12:10:15;2.70;;;2.60;;
14030;SDS011;7090;49.436;8.490;2022-10-22T12:12:54;3.45;;;3.28;;
14030;SDS011;7090;49.436;8.490;2022-10-22T12:15:22;2.50;;;2.40;;
14030;SDS011;7090;49.436;8.490;2022-10-22T12:17:55;3.03;;;2.85;;
14030;SDS011;7090;49.436;8.490;2022-10-22T12:20:25;2.78;;;2.67;;
14030;SDS011;7090;49.436;8.490;2022-10-22T12:22:52;3.00;;;2.80;;
14030;SDS011;7090;49.436;8.490;2022-10-22T12:25:22;3.10;;;3.00;;
14030;SDS011;7090;49.436;8.490;2022-10-22T12:27:51;2.70;;;2.60;;
14030;SDS011;7090;49.436;8.490;2022-10-22T12:30:25;3.30;;;3.00;;
14030;SDS011;7090;49.436;8.490;2022-10-22T12:32:56;3.58;;;3.10;;
14030;SDS011;7090;49.436;8.490;2022-10-22T12:35:25;2.90;;;2.80;;
14030;SDS011;7090;49.436;8.490;2022-10-22T12:37:53;3.15;;;2.95;;
14030;SDS011;7090;49.436;8.490;2022-10-22T12:42:48;3.92;;;3.13;;
14030;SDS011;7090;49.436;8.490;2022-10-22T12:45:18;3.53;;;3.20;;
14030;SDS011;7090;49.436;8.490;2022-10-22T12:47:45;3.20;;;3.10;;
14030;SDS011;7090;49.436;8.490;2022-10-22T12:50:16;3.33;;;3.17;;
14030;SDS011;7090;49.436;8.490;2022-10-22T12:52:44;4.30;;;3.60;;
14030;SDS011;7090;49.436;8.490;2022-10-22T12:55:15;3.00;;;2.90;;
14030;SDS011;7090;49.436;8.490;2022-10-22T12:57:46;5.35;;;3.42;;
14030;SDS011;7090;49.436;8.490;2022-10-22T13:00:20;5.60;;;2.67;;
14030;SDS011;7090;49.436;8.490;2022-10-22T13:02:48;3.30;;;3.00;;
14030;SDS011;7090;49.436;8.490;2022-10-22T13:07:52;3.50;;;3.35;;
14030;SDS011;7090;49.436;8.490;2022-10-22T13:10:26;3.00;;;2.90;;
14030;SDS011;7090;49.436;8.490;2022-10-22T13:12:56;3.30;;;3.20;;
14030;SDS011;7090;49.436;8.490;2022-10-22T13:20:50;3.30;;;3.20;;
14030;SDS011;7090;49.436;8.490;2022-10-22T13:23:20;2.40;;;2.30;;
14030;SDS011;7090;49.436;8.490;2022-10-22T13:26:01;3.47;;;3.28;;
14030;SDS011;7090;49.436;8.490;2022-10-22T13:28:36;2.60;;;2.50;;
14030;SDS011;7090;49.436;8.490;2022-10-22T13:31:10;2.97;;;2.88;;
14030;SDS011;7090;49.436;8.490;2022-10-22T13:33:55;3.15;;;2.92;;
14030;SDS011;7090;49.436;8.490;2022-10-22T13:36:24;2.75;;;2.63;;
14030;SDS011;7090;49.436;8.490;2022-10-22T13:38:50;3.17;;;2.85;;
14030;SDS011;7090;49.436;8.490;2022-10-22T13:41:20;3.13;;;3.03;;
14030;SDS011;7090;49.436;8.490;2022-10-22T13:43:46;3.28;;;3.00;;
14030;SDS011;7090;49.436;8.490;2022-10-22T13:46:11;2.78;;;2.67;;
14030;SDS011;7090;49.436;8.490;2022-10-22T13:48:37;2.70;;;2.58;;
14030;SDS011;7090;49.436;8.490;2022-10-22T13:51:03;3.30;;;3.10;;
14030;SDS011;7090;49.436;8.490;2022-10-22T13:53:31;2.97;;;2.88;;
14030;SDS011;7090;49.436;8.490;2022-10-22T13:55:57;2.72;;;2.63;;
14030;SDS011;7090;49.436;8.490;2022-10-22T13:58:23;2.60;;;2.50;;
14030;SDS011;7090;49.436;8.490;2022-10-22T14:00:58;3.60;;;3.38;;
14030;SDS011;7090;49.436;8.490;2022-10-22T14:03:25;3.63;;;2.67;;
14030;SDS011;7090;49.436;8.490;2022-10-22T14:05:55;2.90;;;2.80;;
14030;SDS011;7090;49.436;8.490;2022-10-22T14:08:21;3.35;;;3.00;;
14030;SDS011;7090;49.436;8.490;2022-10-22T14:10:49;2.70;;;2.60;;
14030;SDS011;7090;49.436;8.490;2022-10-22T14:13:15;3.35;;;2.90;;
14030;SDS011;7090;49.436;8.490;2022-10-22T14:15:42;3.65;;;3.35;;
14030;SDS011;7090;49.436;8.490;2022-10-22T14:18:10;3.00;;;2.90;;
14030;SDS011;7090;49.436;8.490;2022-10-22T14:20:39;3.08;;;2.90;;
14030;SDS011;7090;49.436;8.490;2022-10-22T14:23:12;3.25;;;3.05;;
14030;SDS011;7090;49.436;8.490;2022-10-22T14:25:41;2.70;;;2.60;;
14030;SDS011;7090;49.436;8.490;2022-10-22T14:28:10;2.90;;;2.80;;
14030;SDS011;7090;49.436;8.490;2022-10-22T14:30:36;2.65;;;2.55;;
14030;SDS011;7090;49.436;8.490;2022-10-22T14:33:13;2.72;;;2.53;;
14030;SDS011;7090;49.436;8.490;2022-10-22T14:35:39;2.95;;;2.85;;
14030;SDS011;7090;49.436;8.490;2022-10-22T14:38:04;2.58;;;2.47;;
14030;SDS011;7090;49.436;8.490;2022-10-22T14:40:30;5.18;;;3.58;;
14030;SDS011;7090;49.436;8.490;2022-10-22T14:42:55;2.80;;;2.70;;
14030;SDS011;7090;49.436;8.490;2022-10-22T14:45:22;2.60;;;2.50;;
14030;SDS011;7090;49.436;8.490;2022-10-22T14:47:49;2.90;;;2.80;;
14030;SDS011;7090;49.436;8.490;2022-10-22T14:50:16;2.90;;;2.80;;
14030;SDS011;7090;49.436;8.490;2022-10-22T14:52:42;6.25;;;3.17;;
14030;SDS011;7090;49.436;8.490;2022-10-22T14:55:09;2.80;;;2.70;;
14030;SDS011;7090;49.436;8.490;2022-10-22T14:57:35;3.03;;;2.78;;
14030;SDS011;7090;49.436;8.490;2022-10-22T15:00:03;2.90;;;2.80;;
14030;SDS011;7090;49.436;8.490;2022-10-22T15:02:33;3.25;;;2.97;;
14030;SDS011;7090;49.436;8.490;2022-10-22T15:04:59;3.55;;;3.00;;
14030;SDS011;7090;49.436;8.490;2022-10-22T15:07:24;3.10;;;2.90;;
14030;SDS011;7090;49.436;8.490;2022-10-22T15:09:51;3.97;;;3.22;;
14030;SDS011;7090;49.436;8.490;2022-10-22T15:12:17;3.45;;;2.90;;
14030;SDS011;7090;49.436;8.490;2022-10-22T15:14:44;3.00;;;2.90;;
14030;SDS011;7090;49.436;8.490;2022-10-22T15:17:11;2.80;;;2.70;;
14030;SDS011;7090;49.436;8.490;2022-10-22T15:19:36;3.00;;;2.80;;
14030;SDS011;7090;49.436;8.490;2022-10-22T15:22:02;2.50;;;2.40;;
14030;SDS011;7090;49.436;8.490;2022-10-22T15:24:28;2.40;;;2.30;;
14030;SDS011;7090;49.436;8.490;2022-10-22T15:26:54;2.55;;;2.45;;
14030;SDS011;7090;49.436;8.490;2022-10-22T15:29:19;2.25;;;2.20;;
14030;SDS011;7090;49.436;8.490;2022-10-22T15:31:48;2.10;;;2.10;;
14030;SDS011;7090;49.436;8.490;2022-10-22T15:34:20;5.07;;;2.25;;
14030;SDS011;7090;49.436;8.490;2022-10-22T15:36:47;2.47;;;2.38;;
14030;SDS011;7090;49.436;8.490;2022-10-22T15:39:13;2.03;;;2.03;;
14030;SDS011;7090;49.436;8.490;2022-10-22T15:41:39;2.33;;;2.22;;
14030;SDS011;7090;49.436;8.490;2022-10-22T15:44:05;2.05;;;2.05;;
14030;SDS011;7090;49.436;8.490;2022-10-22T15:46:32;2.10;;;2.10;;
14030;SDS011;7090;49.436;8.490;2022-10-22T15:48:59;4.20;;;4.00;;
14030;SDS011;7090;49.436;8.490;2022-10-22T15:51:25;2.20;;;2.20;;
14030;SDS011;7090;49.436;8.490;2022-10-22T15:53:54;2.10;;;2.10;;
14030;SDS011;7090;49.436;8.490;2022-10-22T15:56:21;2.00;;;2.00;;
14030;SDS011;7090;49.436;8.490;2022-10-22T15:58:51;3.67;;;2.20;;
14030;SDS011;7090;49.436;8.490;2022-10-22T16:01:17;2.00;;;2.00;;
14030;SDS011;7090;49.436;8.490;2022-10-22T16:03:43;2.80;;;2.70;;
14030;SDS011;7090;49.436;8.490;2022-10-22T16:06:09;18.90;;;6.20;;
14030;SDS011;7090;49.436;8.490;2022-10-22T16:08:34;3.15;;;2.97;;
14030;SDS011;7090;49.436;8.490;2022-10-22T16:11:00;2.55;;;2.45;;
14030;SDS011;7090;49.436;8.490;2022-10-22T16:13:26;2.20;;;2.20;;
14030;SDS011;7090;49.436;8.490;2022-10-22T16:15:52;2.30;;;2.20;;
14030;SDS011;7090;49.436;8.490;2022-10-22T16:18:18;2.10;;;2.10;;
14030;SDS011;7090;49.436;8.490;2022-10-22T16:20:45;2.78;;;2.67;;
14030;SDS011;7090;49.436;8.490;2022-10-22T16:23:11;2.80;;;2.70;;
14030;SDS011;7090;49.436;8.490;2022-10-22T16:25:41;2.70;;;2.60;;
14030;SDS011;7090;49.436;8.490;2022-10-22T16:28:07;2.80;;;2.70;;
14030;SDS011;7090;49.436;8.490;2022-10-22T16:30:35;3.22;;;3.13;;
14030;SDS011;7090;49.436;8.490;2022-10-22T16:33:02;2.90;;;2.80;;
14030;SDS011;7090;49.436;8.490;2022-10-22T16:35:28;3.10;;;3.00;;
14030;SDS011;7090;49.436;8.490;2022-10-22T16:37:54;2.80;;;2.70;;
14030;SDS011;7090;49.436;8.490;2022-10-22T16:40:20;3.53;;;3.33;;
14030;SDS011;7090;49.436;8.490;2022-10-22T16:42:46;7.82;;;3.03;;
14030;SDS011;7090;49.436;8.490;2022-10-22T16:45:11;3.25;;;3.15;;
14030;SDS011;7090;49.436;8.490;2022-10-22T16:47:37;3.10;;;3.00;;